createdAt,value
2019-04-04T00:02:04.665Z,20.27
2019-04-04T00:04:33.542Z,19.42
2019-04-04T00:07:02.367Z,20.08
2019-04-04T00:09:33.003Z,18.60
2019-04-04T00:12:01.685Z,22.17
2019-04-04T00:14:30.510Z,18.32
2019-04-04T00:16:59.376Z,20.88
2019-04-04T00:19:30.042Z,21.52
2019-04-04T00:21:58.714Z,22.95
2019-04-04T00:24:27.556Z,24.60
2019-04-04T00:26:56.422Z,19.73
2019-04-04T00:29:25.301Z,22.70
2019-04-04T00:31:54.264Z,21.37
2019-04-04T00:34:23.162Z,23.65
2019-04-04T00:36:52.036Z,19.90
2019-04-04T00:39:20.874Z,21.80
2019-04-04T00:41:49.763Z,26.45
2019-04-04T00:44:18.705Z,20.25
2019-04-04T00:46:47.652Z,23.18
2019-04-04T00:49:16.553Z,20.77
2019-04-04T00:51:45.515Z,22.10
2019-04-04T00:54:14.650Z,22.60
2019-04-04T00:56:43.804Z,22.37
2019-04-04T00:59:12.656Z,24.10
2019-04-04T01:01:41.492Z,24.55
2019-04-04T01:04:10.359Z,24.52
2019-04-04T01:06:39.210Z,20.32
2019-04-04T01:09:11.497Z,21.48
2019-04-04T01:11:38.555Z,22.07
2019-04-04T01:14:07.377Z,20.85
2019-04-04T01:16:36.241Z,25.62
2019-04-04T01:19:05.205Z,24.02
2019-04-04T01:21:34.114Z,23.45
2019-04-04T01:24:02.963Z,21.00
2019-04-04T01:26:33.124Z,21.77
2019-04-04T01:29:02.329Z,22.77
2019-04-04T01:31:31.154Z,22.32
2019-04-04T01:33:59.998Z,22.45
2019-04-04T01:36:28.830Z,20.30
2019-04-04T01:38:58.142Z,18.85
2019-04-04T01:41:28.199Z,19.55
2019-04-04T01:44:04.952Z,22.10
2019-04-04T01:46:27.484Z,17.92
2019-04-04T01:48:56.347Z,18.73
2019-04-04T01:51:25.433Z,20.32
2019-04-04T01:53:55.237Z,19.35
2019-04-04T01:56:24.079Z,20.48
2019-04-04T01:58:52.963Z,17.15
2019-04-04T02:01:21.823Z,18.37
2019-04-04T02:03:51.819Z,16.73
2019-04-04T02:06:21.161Z,16.42
2019-04-04T02:08:49.984Z,17.70
2019-04-04T02:11:18.849Z,17.02
2019-04-04T02:13:47.678Z,18.37
2019-04-04T02:16:17.023Z,18.67
2019-04-04T02:18:46.593Z,21.40
2019-04-04T02:21:15.456Z,19.40
2019-04-04T02:23:44.282Z,20.52
2019-04-04T02:26:13.157Z,20.23
2019-04-04T02:28:41.994Z,17.50
2019-04-04T02:31:11.472Z,17.65
2019-04-04T02:33:40.405Z,20.15
2019-04-04T02:36:09.341Z,17.95
2019-04-04T02:38:38.170Z,22.73
2019-04-04T02:41:07.044Z,23.60
2019-04-04T02:43:35.872Z,23.90
2019-04-04T02:46:04.749Z,18.27
2019-04-04T02:48:33.558Z,23.60
2019-04-04T02:51:06.991Z,21.93
2019-04-04T02:53:32.902Z,23.00
2019-04-04T02:56:03.398Z,19.77
2019-04-04T02:58:32.249Z,21.40
2019-04-04T03:01:01.125Z,20.77
2019-04-04T03:03:29.891Z,24.18
2019-04-04T03:05:59.041Z,24.23
2019-04-04T03:08:27.889Z,21.23
2019-04-04T03:10:56.770Z,21.90
2019-04-04T03:13:25.701Z,22.77
2019-04-04T03:15:54.574Z,20.82
2019-04-04T03:18:23.414Z,23.18
2019-04-04T03:20:52.205Z,22.32
2019-04-04T03:23:21.061Z,25.12
2019-04-04T03:25:49.887Z,25.00
2019-04-04T03:28:18.742Z,24.35
2019-04-04T03:31:00.947Z,22.35
2019-04-04T03:33:18.059Z,20.30
2019-04-04T03:35:46.884Z,18.80
2019-04-04T03:38:15.755Z,17.65
2019-04-04T03:40:44.580Z,18.60
2019-04-04T03:43:15.894Z,17.62
2019-04-04T03:45:43.912Z,19.73
2019-04-04T03:48:17.017Z,22.90
2019-04-04T03:50:43.252Z,21.05
2019-04-04T03:53:16.365Z,18.27
2019-04-04T03:55:42.604Z,18.42
2019-04-04T03:58:11.448Z,19.48
2019-04-04T04:00:40.674Z,22.67
2019-04-04T04:03:09.862Z,22.93
2019-04-04T04:05:40.729Z,24.80
2019-04-04T04:08:09.203Z,24.72
2019-04-04T04:10:38.061Z,22.05
2019-04-04T04:13:08.213Z,23.18
2019-04-04T04:15:37.027Z,23.40
2019-04-04T04:18:05.886Z,27.22
2019-04-04T04:20:37.415Z,24.75
2019-04-04T04:23:05.339Z,24.65
2019-04-04T04:25:36.433Z,24.00
2019-04-04T04:28:04.667Z,25.80
2019-04-04T04:30:33.507Z,22.90
2019-04-04T04:33:02.340Z,28.15
2019-04-04T04:35:31.177Z,25.23
2019-04-04T04:38:00.031Z,26.62
2019-04-04T04:40:28.852Z,27.05
2019-04-04T04:43:00.729Z,26.02
2019-04-04T04:45:28.202Z,24.00
2019-04-04T04:47:57.388Z,25.37
2019-04-04T04:50:26.515Z,21.23
2019-04-04T04:52:55.370Z,22.10
2019-04-04T04:55:24.538Z,22.50
2019-04-04T04:57:56.517Z,18.75
2019-04-04T05:00:27.503Z,20.30
2019-04-04T05:02:55.698Z,23.45
2019-04-04T05:05:24.520Z,21.93
2019-04-04T05:07:54.837Z,19.40
2019-04-04T05:10:23.942Z,18.20
2019-04-04T05:12:53.039Z,20.08
2019-04-04T05:15:22.617Z,19.27
2019-04-04T05:17:51.527Z,18.52
2019-04-04T05:20:20.333Z,15.80
2019-04-04T05:22:49.157Z,19.55
2019-04-04T05:25:18.213Z,16.40
2019-04-04T05:27:47.058Z,17.00
2019-04-04T05:30:16.637Z,17.07
2019-04-04T05:32:46.128Z,16.27
2019-04-04T05:35:15.339Z,18.50
2019-04-04T05:37:44.443Z,12.78
2019-04-04T05:40:14.896Z,12.13
2019-04-04T05:42:43.731Z,16.30
2019-04-04T05:45:14.340Z,12.75
2019-04-04T05:47:43.368Z,13.72
2019-04-04T05:50:12.343Z,13.53
2019-04-04T05:52:41.190Z,13.45
2019-04-04T05:55:10.978Z,13.90
2019-04-04T05:57:40.004Z,16.40
2019-04-04T06:00:11.469Z,13.98
2019-04-04T06:02:41.106Z,13.03
2019-04-04T06:05:10.879Z,15.25
2019-04-04T06:07:39.724Z,12.60
2019-04-04T06:10:11.857Z,16.37
2019-04-04T06:12:39.736Z,14.57
2019-04-04T06:15:08.897Z,19.07
2019-04-04T06:17:39.120Z,18.45
2019-04-04T06:20:08.693Z,14.87
2019-04-04T06:22:37.521Z,13.10
2019-04-04T06:25:07.077Z,12.58
2019-04-04T06:27:35.918Z,15.00
2019-04-04T06:30:06.064Z,17.20
2019-04-04T06:32:34.950Z,16.25
2019-04-04T06:35:04.053Z,17.40
2019-04-04T06:37:34.300Z,18.55
2019-04-04T06:40:04.259Z,17.17
2019-04-04T06:42:36.036Z,16.25
2019-04-04T06:45:04.911Z,18.45
2019-04-04T06:47:33.778Z,15.05
2019-04-04T06:50:02.598Z,16.97
2019-04-04T06:52:31.465Z,16.73
2019-04-04T06:55:00.287Z,13.35
2019-04-04T06:57:29.137Z,15.55
2019-04-04T06:59:57.976Z,15.88
2019-04-04T07:02:26.848Z,13.85
2019-04-04T07:04:55.674Z,18.40
2019-04-04T07:07:24.503Z,18.73
2019-04-04T07:09:53.343Z,23.40
2019-04-04T07:12:28.143Z,15.00
2019-04-04T07:14:52.697Z,18.05
2019-04-04T07:17:21.539Z,14.03
2019-04-04T07:19:50.393Z,15.65
2019-04-04T07:22:20.632Z,17.82
2019-04-04T07:24:49.589Z,16.52
2019-04-04T07:27:18.429Z,18.92
2019-04-04T07:29:47.286Z,15.10
2019-04-04T07:32:16.136Z,15.65
2019-04-04T07:34:45.819Z,14.10
2019-04-04T07:37:14.819Z,15.70
2019-04-04T07:39:43.666Z,16.17
2019-04-04T07:42:15.575Z,17.23
2019-04-04T07:44:42.990Z,18.98
2019-04-04T07:47:11.803Z,12.23
2019-04-04T07:49:40.664Z,14.98
2019-04-04T07:52:09.489Z,15.40
2019-04-04T07:54:39.101Z,19.40
2019-04-04T07:57:08.276Z,11.43
2019-04-04T07:59:37.133Z,15.15
2019-04-04T08:02:05.958Z,17.25
2019-04-04T08:04:34.823Z,11.93
2019-04-04T08:07:03.576Z,16.73
2019-04-04T08:09:32.420Z,14.05
2019-04-04T08:12:01.251Z,14.83
2019-04-04T08:14:30.109Z,13.25
2019-04-04T08:16:58.959Z,12.70
2019-04-04T08:19:27.844Z,13.85
2019-04-04T08:21:56.700Z,12.90
2019-04-04T08:24:25.496Z,17.62
2019-04-04T08:26:54.362Z,16.75
2019-04-04T08:29:23.182Z,15.93
2019-04-04T08:31:52.051Z,17.70
2019-04-04T08:34:20.881Z,14.13
2019-04-04T08:36:49.724Z,15.05
2019-04-04T08:39:18.564Z,13.35
2019-04-04T08:41:47.421Z,13.60
2019-04-04T08:44:16.244Z,14.55
2019-04-04T08:46:45.106Z,21.42
2019-04-04T08:49:13.939Z,16.48
2019-04-04T08:51:42.789Z,15.03
2019-04-04T08:54:11.636Z,14.10
2019-04-04T08:56:40.697Z,15.03
2019-04-04T08:59:09.553Z,15.30
2019-04-04T09:01:38.388Z,16.75
2019-04-04T09:04:07.249Z,15.53
2019-04-04T09:06:36.078Z,12.13
2019-04-04T09:09:06.856Z,11.83
2019-04-04T09:11:35.689Z,12.53
2019-04-04T09:14:04.839Z,16.00
2019-04-04T09:16:33.648Z,17.42
2019-04-04T09:19:02.496Z,13.22
2019-04-04T09:21:31.308Z,17.35
2019-04-04T09:24:00.810Z,11.35
2019-04-04T09:26:29.941Z,13.05
2019-04-04T09:28:58.807Z,16.95
2019-04-04T09:31:27.677Z,18.42
2019-04-04T09:33:56.582Z,14.45
2019-04-04T09:36:25.451Z,14.03
2019-04-04T09:38:54.348Z,15.83
2019-04-04T09:41:23.218Z,13.13
2019-04-04T09:43:52.239Z,13.40
2019-04-04T09:46:21.145Z,14.40
2019-04-04T09:48:49.992Z,19.05
2019-04-04T09:51:18.857Z,21.05
2019-04-04T09:53:53.407Z,12.95
2019-04-04T09:56:18.230Z,11.73
2019-04-04T09:58:47.092Z,13.83
2019-04-04T10:01:15.954Z,16.15
2019-04-04T10:03:44.821Z,13.13
2019-04-04T10:06:13.676Z,15.20
2019-04-04T10:08:42.496Z,10.72
2019-04-04T10:11:11.397Z,11.50
2019-04-04T10:13:40.259Z,12.10
2019-04-04T10:16:09.111Z,13.40
2019-04-04T10:18:37.978Z,12.37
2019-04-04T10:21:12.188Z,13.75
2019-04-04T10:23:37.391Z,15.20
2019-04-04T10:26:06.281Z,12.90
2019-04-04T10:28:35.089Z,10.18
2019-04-04T10:31:04.005Z,16.30
2019-04-04T10:33:32.918Z,13.62
2019-04-04T10:36:01.802Z,15.25
2019-04-04T10:38:30.678Z,15.05
2019-04-04T10:40:59.492Z,12.35
2019-04-04T10:43:28.362Z,13.32
2019-04-04T10:45:57.233Z,12.23
2019-04-04T10:48:26.153Z,9.05
2019-04-04T10:50:55.013Z,10.45
2019-04-04T10:53:23.890Z,12.58
2019-04-04T10:55:52.782Z,14.83
2019-04-04T10:58:21.672Z,13.78
2019-04-04T11:00:50.491Z,12.60
2019-04-04T11:03:19.399Z,14.07
2019-04-04T11:05:48.279Z,14.93
2019-04-04T11:08:17.166Z,14.73
2019-04-04T11:10:46.050Z,14.55
2019-04-04T11:13:14.869Z,14.55
2019-04-04T11:15:43.729Z,15.85
2019-04-04T11:18:12.576Z,15.50
2019-04-04T11:20:41.476Z,13.72
2019-04-04T11:23:10.308Z,11.20
2019-04-04T11:25:39.148Z,13.28
2019-04-04T11:28:07.906Z,12.98
2019-04-04T11:30:36.754Z,19.25
2019-04-04T11:33:05.595Z,16.00
2019-04-04T11:35:34.488Z,15.43
2019-04-04T11:38:03.297Z,16.57
2019-04-04T11:40:32.171Z,14.58
2019-04-04T11:43:01.033Z,19.23
2019-04-04T11:45:29.893Z,20.12
2019-04-04T11:47:58.718Z,16.52
2019-04-04T11:50:27.621Z,18.30
2019-04-04T11:52:56.495Z,19.00
2019-04-04T11:55:25.367Z,17.05
2019-04-04T11:57:54.222Z,12.85
2019-04-04T12:00:27.782Z,16.25
2019-04-04T12:02:56.665Z,13.53
2019-04-04T12:05:25.552Z,12.50
2019-04-04T12:07:54.404Z,10.63
2019-04-04T12:10:23.262Z,12.28
2019-04-04T12:12:52.140Z,14.83
2019-04-04T12:15:20.980Z,9.65
2019-04-04T12:17:49.878Z,10.03
2019-04-04T12:20:18.844Z,12.15
2019-04-04T12:22:47.714Z,9.05
2019-04-04T12:25:16.542Z,13.30
2019-04-04T12:27:45.425Z,12.37
2019-04-04T12:30:15.594Z,14.43
2019-04-04T12:32:44.493Z,12.93
2019-04-04T12:35:13.352Z,15.45
2019-04-04T12:37:42.195Z,16.32
2019-04-04T12:40:20.301Z,16.55
2019-04-04T12:42:42.016Z,14.50
2019-04-04T12:45:11.676Z,12.53
2019-04-04T12:47:40.564Z,10.43
2019-04-04T12:50:09.874Z,12.88
2019-04-04T12:52:38.793Z,14.15
2019-04-04T12:55:08.241Z,12.43
2019-04-04T12:57:37.080Z,13.65
2019-04-04T13:00:08.418Z,13.05
2019-04-04T13:02:37.290Z,13.18
2019-04-04T13:05:09.739Z,12.20
2019-04-04T13:07:38.609Z,12.73
2019-04-04T13:10:12.135Z,19.67
2019-04-04T13:12:41.035Z,17.25
2019-04-04T13:15:10.632Z,13.65
2019-04-04T13:17:39.590Z,15.98
2019-04-04T13:20:08.701Z,14.10
2019-04-04T13:22:37.873Z,15.72
2019-04-04T13:25:08.336Z,20.57
2019-04-04T13:27:37.210Z,18.25
2019-04-04T13:30:11.246Z,14.30
2019-04-04T13:32:40.140Z,20.05
2019-04-04T13:35:09.001Z,16.20
2019-04-04T13:37:37.867Z,15.32
2019-04-04T13:40:07.931Z,17.70
2019-04-04T13:42:36.830Z,16.45
2019-04-04T13:45:08.856Z,19.70
2019-04-04T13:47:39.284Z,18.27
2019-04-04T13:50:12.482Z,21.42
2019-04-04T13:52:40.541Z,17.98
2019-04-04T13:55:09.386Z,17.00
2019-04-04T13:57:39.459Z,14.68
2019-04-04T14:00:09.799Z,14.93
2019-04-04T14:02:38.662Z,14.38
2019-04-04T14:05:10.138Z,21.90
2019-04-04T14:07:39.418Z,17.77
2019-04-04T14:10:09.366Z,16.70
2019-04-04T14:12:38.217Z,17.87
2019-04-04T14:15:11.281Z,19.87
2019-04-04T14:17:43.344Z,15.98
2019-04-04T14:20:11.197Z,15.63
2019-04-04T14:22:40.124Z,18.95
2019-04-04T14:25:09.610Z,18.95
2019-04-04T14:27:38.468Z,14.98
2019-04-04T14:30:08.363Z,16.27
2019-04-04T14:32:37.223Z,10.23
2019-04-04T14:35:08.132Z,14.45
2019-04-04T14:37:36.958Z,12.85
2019-04-04T14:40:06.909Z,13.70
2019-04-04T14:42:35.788Z,14.28
2019-04-04T14:45:06.639Z,14.90
2019-04-04T14:47:35.762Z,17.50
2019-04-04T14:50:09.220Z,17.57
2019-04-04T14:52:39.522Z,16.23
2019-04-04T14:55:08.840Z,17.50
2019-04-04T14:57:37.710Z,17.42
2019-04-04T15:00:10.448Z,21.45
2019-04-04T15:02:39.300Z,13.43
2019-04-04T15:05:08.306Z,16.30
2019-04-04T15:07:37.195Z,19.07
2019-04-04T15:10:06.161Z,13.32
2019-04-04T15:12:35.113Z,15.93
2019-04-04T15:15:04.661Z,15.58
2019-04-04T15:17:33.535Z,19.62
2019-04-04T15:20:02.370Z,17.17
2019-04-04T15:22:31.989Z,17.37
2019-04-04T15:25:01.057Z,15.80
2019-04-04T15:27:29.926Z,18.70
2019-04-04T15:29:58.790Z,16.73
2019-04-04T15:32:27.685Z,17.57
2019-04-04T15:34:56.516Z,17.05
2019-04-04T15:37:25.415Z,20.08
2019-04-04T15:39:54.370Z,14.03
2019-04-04T15:42:23.245Z,19.52
2019-04-04T15:44:52.089Z,20.32
2019-04-04T15:47:21.006Z,15.60
2019-04-04T15:49:49.868Z,20.72
2019-04-04T15:52:18.752Z,17.65
2019-04-04T15:54:47.654Z,19.87
2019-04-04T15:57:16.535Z,20.32
2019-04-04T15:59:45.456Z,25.62
2019-04-04T16:02:14.349Z,25.92
2019-04-04T16:04:43.218Z,34.80
2019-04-04T16:07:12.095Z,20.55
2019-04-04T16:09:40.978Z,26.10
2019-04-04T16:12:09.916Z,20.10
2019-04-04T16:14:38.757Z,18.73
2019-04-04T16:17:07.709Z,22.27
2019-04-04T16:19:36.557Z,20.92
2019-04-04T16:22:05.483Z,26.62
2019-04-04T16:24:34.414Z,21.52
2019-04-04T16:27:03.361Z,17.23
2019-04-04T16:29:32.285Z,19.62
2019-04-04T16:32:01.161Z,16.45
2019-04-04T16:34:30.015Z,20.35
2019-04-04T16:36:58.856Z,16.95
2019-04-04T16:39:27.701Z,15.80
2019-04-04T16:42:02.039Z,21.15
2019-04-04T16:44:27.086Z,15.70
2019-04-04T16:46:55.907Z,14.18
2019-04-04T16:49:24.807Z,14.63
2019-04-04T16:51:53.663Z,15.40
2019-04-04T16:54:22.556Z,15.75
2019-04-04T16:56:51.395Z,13.40
2019-04-04T16:59:20.253Z,18.87
2019-04-04T17:01:50.120Z,15.00
2019-04-04T17:04:18.978Z,18.57
2019-04-04T17:06:47.835Z,15.45
2019-04-04T17:09:16.711Z,19.37
2019-04-04T17:11:45.557Z,16.45
2019-04-04T17:14:14.444Z,16.30
2019-04-04T17:16:43.319Z,18.45
2019-04-04T17:19:12.210Z,20.48
2019-04-04T17:21:41.048Z,19.23
2019-04-04T17:24:09.940Z,22.85
2019-04-04T17:26:38.768Z,20.02
2019-04-04T17:29:07.705Z,19.70
2019-04-04T17:31:36.591Z,19.27
2019-04-04T17:34:05.547Z,21.65
2019-04-04T17:36:34.428Z,19.57
2019-04-04T17:39:05.119Z,23.65
2019-04-04T17:41:34.162Z,24.30
2019-04-04T17:44:03.138Z,22.87
2019-04-04T17:46:32.237Z,19.87
2019-04-04T17:49:01.393Z,26.37
2019-04-04T17:51:30.575Z,24.05
2019-04-04T17:53:59.764Z,21.70
2019-04-04T17:56:28.630Z,18.23
2019-04-04T17:58:57.457Z,15.43
2019-04-04T18:01:26.326Z,14.87
2019-04-04T18:03:55.267Z,17.40
2019-04-04T18:06:24.167Z,18.85
2019-04-04T18:08:53.031Z,17.42
2019-04-04T18:11:21.937Z,18.82
2019-04-04T18:13:50.807Z,19.48
2019-04-04T18:16:19.695Z,17.60
2019-04-04T18:18:48.582Z,17.00
2019-04-04T18:21:17.484Z,18.40
2019-04-04T18:23:46.257Z,11.40
2019-04-04T18:26:15.158Z,12.07
2019-04-04T18:28:44.027Z,7.75
2019-04-04T18:31:12.903Z,7.60
2019-04-04T18:33:41.717Z,4.55
2019-04-04T18:36:10.660Z,4.83
2019-04-04T18:38:39.492Z,4.05
2019-04-04T18:41:08.380Z,5.15
2019-04-04T18:43:37.223Z,4.33
2019-04-04T18:46:06.296Z,5.90
2019-04-04T18:48:35.206Z,4.95
2019-04-04T18:51:04.053Z,5.08
2019-04-04T18:53:32.937Z,4.15
2019-04-04T18:56:01.841Z,5.03
2019-04-04T18:58:30.706Z,6.55
2019-04-04T19:00:59.564Z,7.67
2019-04-04T19:03:29.755Z,8.08
2019-04-04T19:05:58.917Z,6.90
2019-04-04T19:08:27.819Z,6.87
2019-04-04T19:10:56.664Z,5.80
2019-04-04T19:13:25.639Z,6.05
2019-04-04T19:15:54.496Z,7.28
2019-04-04T19:18:23.394Z,5.95
2019-04-04T19:20:52.238Z,4.62
2019-04-04T19:23:21.146Z,6.12
2019-04-04T19:25:50.018Z,5.67
2019-04-04T19:28:18.895Z,4.28
2019-04-04T19:30:47.869Z,6.58
2019-04-04T19:33:16.753Z,3.70
2019-04-04T19:35:45.644Z,3.85
2019-04-04T19:38:14.504Z,4.58
2019-04-04T19:40:43.789Z,4.40
2019-04-04T19:43:17.862Z,4.17
2019-04-04T19:45:43.172Z,6.12
2019-04-04T19:48:12.037Z,3.83
2019-04-04T19:50:40.920Z,3.98
2019-04-04T19:53:09.729Z,4.97
2019-04-04T19:55:38.736Z,3.45
2019-04-04T19:58:07.591Z,3.65
2019-04-04T20:00:36.446Z,3.00
2019-04-04T20:03:05.281Z,2.67
2019-04-04T20:05:34.166Z,3.70
2019-04-04T20:08:02.979Z,3.50
2019-04-04T20:10:31.867Z,3.33
2019-04-04T20:13:00.673Z,3.20
2019-04-04T20:15:29.590Z,3.00
2019-04-04T20:17:58.452Z,3.10
2019-04-04T20:20:27.357Z,3.77
2019-04-04T20:22:56.196Z,3.35
2019-04-04T20:25:25.089Z,3.98
2019-04-04T20:27:55.090Z,3.47
2019-04-04T20:30:38.970Z,4.20
2019-04-04T20:33:08.919Z,4.03
2019-04-04T20:35:37.902Z,5.25
2019-04-04T20:38:06.778Z,4.28
2019-04-04T20:40:35.641Z,3.70
2019-04-04T20:43:04.504Z,5.72
2019-04-04T20:45:33.369Z,3.75
2019-04-04T20:48:02.265Z,3.33
2019-04-04T20:50:31.079Z,4.10
2019-04-04T20:52:59.983Z,4.17
2019-04-04T20:55:28.831Z,4.15
2019-04-04T20:57:57.730Z,4.95
2019-04-04T21:00:26.594Z,3.60
2019-04-04T21:02:55.893Z,4.70
2019-04-04T21:05:24.745Z,4.50
2019-04-04T21:07:53.648Z,5.87
2019-04-04T21:10:22.511Z,5.17
2019-04-04T21:12:51.353Z,6.22
2019-04-04T21:15:20.222Z,5.30
2019-04-04T21:17:49.118Z,9.28
2019-04-04T21:20:17.981Z,7.20
2019-04-04T21:22:46.881Z,6.97
2019-04-04T21:25:15.693Z,7.62
2019-04-04T21:27:44.607Z,5.50
2019-04-04T21:30:13.887Z,6.78
2019-04-04T21:32:42.789Z,5.87
2019-04-04T21:35:11.563Z,6.83
2019-04-04T21:37:40.446Z,5.45
2019-04-04T21:40:09.290Z,6.33
2019-04-04T21:42:38.268Z,7.72
2019-04-04T21:45:07.761Z,9.28
2019-04-04T21:47:36.977Z,8.40
2019-04-04T21:50:07.437Z,7.62
2019-04-04T21:52:37.317Z,7.53
2019-04-04T21:55:06.913Z,7.47
2019-04-04T21:57:35.768Z,9.00
2019-04-04T22:00:07.032Z,7.78
2019-04-04T22:02:35.929Z,7.40
2019-04-04T22:05:07.264Z,8.20
2019-04-04T22:07:36.123Z,8.83
2019-04-04T22:10:07.293Z,11.22
2019-04-04T22:12:36.150Z,8.98
2019-04-04T22:15:07.159Z,12.10
2019-04-04T22:17:35.959Z,11.68
2019-04-04T22:20:06.369Z,8.45
2019-04-04T22:22:35.200Z,8.83
2019-04-04T22:25:06.161Z,11.08
2019-04-04T22:27:34.975Z,10.08
2019-04-04T22:30:05.923Z,8.53
2019-04-04T22:32:34.743Z,6.87
2019-04-04T22:35:04.295Z,6.50
2019-04-04T22:37:33.122Z,5.85
2019-04-04T22:40:01.969Z,4.80
2019-04-04T22:42:30.714Z,7.47
2019-04-04T22:44:59.569Z,5.20
2019-04-04T22:47:28.449Z,7.15
2019-04-04T22:49:57.274Z,7.25
2019-04-04T22:52:26.087Z,5.85
2019-04-04T22:54:54.980Z,6.08
2019-04-04T22:57:23.843Z,4.45
2019-04-04T22:59:52.661Z,8.73
2019-04-04T23:02:21.517Z,3.98
2019-04-04T23:04:50.356Z,4.78
2019-04-04T23:07:19.214Z,7.70
2019-04-04T23:09:48.045Z,4.95
2019-04-04T23:12:16.902Z,3.83
2019-04-04T23:14:48.253Z,4.08
2019-04-04T23:17:16.232Z,5.17
2019-04-04T23:19:45.058Z,5.05
2019-04-04T23:22:13.914Z,7.15
2019-04-04T23:24:42.728Z,4.53
2019-04-04T23:27:11.572Z,5.17
2019-04-04T23:29:42.620Z,5.08
2019-04-04T23:32:10.916Z,6.75
2019-04-04T23:34:39.747Z,4.97
2019-04-04T23:37:08.667Z,7.47
2019-04-04T23:39:37.471Z,4.85
2019-04-04T23:42:06.281Z,4.90
2019-04-04T23:44:35.098Z,5.45
2019-04-04T23:47:03.953Z,5.37
2019-04-04T23:49:32.809Z,6.55
2019-04-04T23:52:01.657Z,4.90
2019-04-04T23:54:30.529Z,4.80
2019-04-04T23:56:59.350Z,4.30
2019-04-04T23:59:28.203Z,5.50
